createdAt,value
2022-10-04T00:01:32.321Z,100651.66
2022-10-04T00:04:12.954Z,100653.88
2022-10-04T00:06:46.292Z,100651.56
2022-10-04T00:09:16.368Z,100648.06
2022-10-04T00:11:47.859Z,100643.44
2022-10-04T00:14:20.907Z,100645.19
2022-10-04T00:16:47.702Z,100647.50
2022-10-04T00:19:20.219Z,100640.81
2022-10-04T00:21:53.383Z,100644.34
2022-10-04T00:24:23.622Z,100644.66
2022-10-04T00:26:49.941Z,100645.78
2022-10-04T00:29:32.007Z,100641.94
2022-10-04T00:32:10.318Z,100644.22
2022-10-04T00:34:37.906Z,100649.81
2022-10-04T00:37:13.712Z,100655.72
2022-10-04T00:39:42.626Z,100646.66
2022-10-04T00:42:31.157Z,100648.41
2022-10-04T00:45:22.687Z,100650.72
2022-10-04T00:47:48.996Z,100650.72
2022-10-04T00:50:49.050Z,100643.66
2022-10-04T00:53:35.568Z,100631.50
2022-10-04T00:56:03.870Z,100638.50
2022-10-04T00:58:36.235Z,100644.56
2022-10-04T01:01:04.015Z,100643.66
2022-10-04T01:03:34.675Z,100638.66
2022-10-04T01:06:05.390Z,100633.16
2022-10-04T01:08:35.202Z,100628.88
2022-10-04T01:11:05.326Z,100634.81
2022-10-04T01:13:38.587Z,100635.66
2022-10-04T01:16:13.420Z,100642.03
2022-10-04T01:18:40.628Z,100643.78
2022-10-04T01:21:08.734Z,100640.41
2022-10-04T01:23:41.796Z,100639.72
2022-10-04T01:26:26.726Z,100639.41
2022-10-04T01:28:54.306Z,100637.19
2022-10-04T01:31:21.163Z,100640.19
2022-10-04T01:33:48.065Z,100645.66
2022-10-04T01:36:14.732Z,100652.88
2022-10-04T01:38:41.671Z,100646.09
2022-10-04T01:41:08.380Z,100652.03
2022-10-04T01:43:37.988Z,100655.28
2022-10-04T01:46:17.071Z,100655.50
2022-10-04T01:48:44.821Z,100651.47
2022-10-04T01:51:24.786Z,100651.34
2022-10-04T01:53:56.853Z,100650.47
2022-10-04T01:56:25.884Z,100654.97
2022-10-04T01:58:56.123Z,100639.81
2022-10-04T02:01:28.510Z,100652.88
2022-10-04T02:03:59.788Z,100659.56
2022-10-04T02:06:26.378Z,100658.81
2022-10-04T02:08:57.669Z,100648.59
2022-10-04T02:11:26.563Z,100655.19
2022-10-04T02:13:54.556Z,100652.56
2022-10-04T02:16:21.873Z,100655.41
2022-10-04T02:18:49.926Z,100653.66
2022-10-04T02:21:17.129Z,100651.91
2022-10-04T02:23:44.201Z,100649.94
2022-10-04T02:26:11.635Z,100648.59
2022-10-04T02:28:39.297Z,100652.53
2022-10-04T02:31:25.021Z,100656.06
2022-10-04T02:33:52.954Z,100656.19
2022-10-04T02:36:24.508Z,100657.81
2022-10-04T02:39:10.824Z,100660.03
2022-10-04T02:41:41.562Z,100662.66
2022-10-04T02:44:29.832Z,100663.75
2022-10-04T02:47:20.434Z,100658.81
2022-10-04T02:50:00.375Z,100661.75
2022-10-04T02:52:34.733Z,100665.16
2022-10-04T02:55:03.617Z,100663.19
2022-10-04T02:57:32.640Z,100672.44
2022-10-04T03:00:14.142Z,100669.75
2022-10-04T03:02:40.696Z,100672.69
2022-10-04T03:05:11.056Z,100664.06
2022-10-04T03:07:38.380Z,100669.06
2022-10-04T03:10:12.462Z,100669.69
2022-10-04T03:12:42.737Z,100667.06
2022-10-04T03:15:10.697Z,100664.91
2022-10-04T03:17:37.170Z,100660.81
2022-10-04T03:20:05.586Z,100664.84
2022-10-04T03:22:32.139Z,100665.72
2022-10-04T03:24:58.717Z,100669.00
2022-10-04T03:27:35.321Z,100669.03
2022-10-04T03:30:02.010Z,100667.47
2022-10-04T03:32:30.454Z,100666.19
2022-10-04T03:35:03.271Z,100666.50
2022-10-04T03:37:30.870Z,100663.97
2022-10-04T03:39:57.964Z,100673.91
2022-10-04T03:42:28.951Z,100671.78
2022-10-04T03:44:59.509Z,100667.63
2022-10-04T03:47:53.563Z,100673.31
2022-10-04T03:50:24.739Z,100676.34
2022-10-04T03:53:02.670Z,100680.94
2022-10-04T03:55:35.126Z,100687.09
2022-10-04T03:58:01.690Z,100673.84
2022-10-04T04:00:28.953Z,100687.66
2022-10-04T04:03:01.193Z,100687.41
2022-10-04T04:05:31.664Z,100684.34
2022-10-04T04:08:07.590Z,100697.31
2022-10-04T04:10:35.787Z,100693.53
2022-10-04T04:13:11.719Z,100695.84
2022-10-04T04:15:43.509Z,100695.31
2022-10-04T04:18:17.434Z,100694.75
2022-10-04T04:20:44.412Z,100696.25
2022-10-04T04:23:34.407Z,100706.75
2022-10-04T04:26:11.876Z,100711.19
2022-10-04T04:28:57.825Z,100710.84
2022-10-04T04:31:36.250Z,100713.47
2022-10-04T04:34:06.465Z,100716.75
2022-10-04T04:36:42.746Z,100725.09
2022-10-04T04:39:31.722Z,100719.19
2022-10-04T04:41:58.377Z,100724.03
2022-10-04T04:44:24.907Z,100722.81
2022-10-04T04:46:51.729Z,100727.16
2022-10-04T04:49:19.403Z,100728.81
2022-10-04T04:51:50.417Z,100731.13
2022-10-04T04:54:19.684Z,100737.84
2022-10-04T04:56:49.008Z,100739.47
2022-10-04T04:59:15.588Z,100749.34
2022-10-04T05:01:44.820Z,100741.13
2022-10-04T05:04:14.553Z,100738.50
2022-10-04T05:06:45.905Z,100735.16
2022-10-04T05:09:24.165Z,100735.16
2022-10-04T05:11:52.577Z,100739.09
2022-10-04T05:14:19.644Z,100742.03
2022-10-04T05:16:50.071Z,100737.81
2022-10-04T05:19:24.117Z,100740.47
2022-10-04T05:21:53.026Z,100753.06
2022-10-04T05:24:37.548Z,100751.97
2022-10-04T05:27:07.003Z,100745.16
2022-10-04T05:29:38.473Z,100751.63
2022-10-04T05:32:07.338Z,100752.81
2022-10-04T05:34:41.882Z,100749.38
2022-10-04T05:37:48.888Z,100750.34
2022-10-04T05:40:15.202Z,100756.41
2022-10-04T05:42:46.376Z,100761.00
2022-10-04T05:45:23.225Z,100761.91
2022-10-04T05:47:51.518Z,100767.28
2022-10-04T05:50:29.069Z,100773.31
2022-10-04T05:53:20.095Z,100773.34
2022-10-04T05:59:02.101Z,100772.66
2022-10-04T06:01:50.495Z,100781.75
2022-10-04T06:04:47.019Z,100778.38
2022-10-04T06:07:29.394Z,100783.66
2022-10-04T06:10:25.949Z,100783.09
2022-10-04T06:13:32.651Z,100791.56
2022-10-04T06:16:22.373Z,100792.00
2022-10-04T06:19:00.948Z,100794.75
2022-10-04T06:21:52.261Z,100795.63
2022-10-04T06:24:26.731Z,100803.53
2022-10-04T06:27:03.730Z,100804.75
2022-10-04T06:29:33.817Z,100807.69
2022-10-04T06:32:10.597Z,100810.22
2022-10-04T06:35:09.686Z,100810.09
2022-10-04T06:37:59.718Z,100823.06
2022-10-04T06:40:48.140Z,100818.22
2022-10-04T06:43:23.791Z,100809.97
2022-10-04T06:46:37.876Z,100821.72
2022-10-04T06:49:13.910Z,100818.75
2022-10-04T06:51:49.778Z,100826.31
2022-10-04T06:55:03.776Z,100832.13
2022-10-04T06:57:48.263Z,100825.19
2022-10-04T07:00:22.287Z,100823.97
2022-10-04T07:03:01.950Z,100834.56
2022-10-04T07:06:04.944Z,100838.97
2022-10-04T07:08:42.311Z,100839.84
2022-10-04T07:11:36.361Z,100847.63
2022-10-04T07:14:02.936Z,100841.56
2022-10-04T07:16:51.318Z,100850.53
2022-10-04T07:19:24.915Z,100847.44
2022-10-04T07:22:06.511Z,100856.47
2022-10-04T07:24:44.375Z,100865.75
2022-10-04T07:27:15.470Z,100864.16
2022-10-04T07:29:45.775Z,100875.94
2022-10-04T07:32:24.595Z,100879.84
2022-10-04T07:35:03.394Z,100880.72
2022-10-04T07:37:34.351Z,100880.91
2022-10-04T07:40:09.992Z,100886.06
2022-10-04T07:42:55.042Z,100884.59
2022-10-04T07:45:29.762Z,100885.94
2022-10-04T07:48:12.915Z,100879.56
2022-10-04T07:51:19.274Z,100893.44
2022-10-04T07:53:53.468Z,100900.41
2022-10-04T07:56:38.623Z,100902.47
2022-10-04T07:59:42.136Z,100904.06
2022-10-04T08:02:18.952Z,100906.72
2022-10-04T08:04:51.662Z,100912.56
2022-10-04T08:07:27.492Z,100914.91
2022-10-04T08:10:03.946Z,100909.22
2022-10-04T08:12:54.675Z,100918.75
2022-10-04T08:15:28.817Z,100917.59
2022-10-04T08:18:05.517Z,100916.31
2022-10-04T08:20:37.924Z,100912.81
2022-10-04T08:23:13.431Z,100920.97
2022-10-04T08:25:51.631Z,100918.38
2022-10-04T08:28:44.054Z,100925.53
2022-10-04T08:31:39.345Z,100931.25
2022-10-04T08:34:31.828Z,100938.75
2022-10-04T08:37:18.086Z,100933.63
2022-10-04T08:39:58.428Z,100942.53
2022-10-04T08:42:41.242Z,100946.34
2022-10-04T08:45:45.450Z,100938.59
2022-10-04T08:48:30.349Z,100944.09
2022-10-04T08:51:34.375Z,100949.69
2022-10-04T08:54:23.024Z,100958.88
2022-10-04T08:57:16.330Z,100964.03
2022-10-04T09:00:07.987Z,100967.97
2022-10-04T09:02:44.427Z,100965.31
2022-10-04T09:05:38.752Z,100970.81
2022-10-04T09:08:39.351Z,100976.25
2022-10-04T09:11:21.223Z,100970.38
2022-10-04T09:14:00.651Z,100970.31
2022-10-04T09:16:46.229Z,100968.56
2022-10-04T09:19:35.381Z,100973.69
2022-10-04T09:22:30.961Z,100975.44
2022-10-04T09:25:29.951Z,100979.53
2022-10-04T09:28:12.629Z,100977.91
2022-10-04T09:31:14.335Z,100985.41
2022-10-04T09:33:59.542Z,100996.66
2022-10-04T09:36:44.623Z,101000.53
2022-10-04T09:39:50.757Z,101000.88
2022-10-04T09:42:28.989Z,101012.44
2022-10-04T09:45:30.114Z,101013.25
2022-10-04T09:48:16.176Z,101021.56
2022-10-04T09:51:01.877Z,101014.47
2022-10-04T09:54:06.942Z,101027.44
2022-10-04T09:56:45.280Z,101024.06
2022-10-04T09:59:34.265Z,101026.19
2022-10-04T10:02:00.648Z,101027.94
2022-10-04T10:04:36.187Z,101027.69
2022-10-04T10:07:21.369Z,101031.25
2022-10-04T10:10:43.877Z,101024.78
2022-10-04T10:13:40.954Z,101025.38
2022-10-04T10:16:10.398Z,101031.28
2022-10-04T10:19:02.981Z,101028.84
2022-10-04T10:21:38.573Z,101039.22
2022-10-04T10:24:07.968Z,101045.09
2022-10-04T10:26:58.117Z,101039.47
2022-10-04T10:29:48.749Z,101038.94
2022-10-04T10:32:39.595Z,101037.38
2022-10-04T10:35:27.464Z,101037.22
2022-10-04T10:38:29.284Z,101045.91
2022-10-04T10:41:37.952Z,101046.84
2022-10-04T10:44:23.658Z,101056.84
2022-10-04T10:47:19.364Z,101044.72
2022-10-04T10:50:19.446Z,101057.41
2022-10-04T10:52:55.485Z,101056.44
2022-10-04T10:55:42.703Z,101054.03
2022-10-04T10:58:47.515Z,101062.47
2022-10-04T11:01:32.836Z,101060.88
2022-10-04T11:04:05.163Z,101055.72
2022-10-04T11:06:45.042Z,101063.88
2022-10-04T11:09:35.000Z,101071.06
2022-10-04T11:12:29.127Z,101076.09
2022-10-04T11:15:23.771Z,101073.53
2022-10-04T11:18:38.506Z,101078.41
2022-10-04T11:21:43.797Z,101078.72
2022-10-04T11:24:45.035Z,101092.81
2022-10-04T11:27:17.779Z,101088.16
2022-10-04T11:29:56.622Z,101097.38
2022-10-04T11:32:51.809Z,101090.84
2022-10-04T11:35:37.092Z,101090.78
2022-10-04T11:38:23.009Z,101090.03
2022-10-04T11:41:11.037Z,101085.53
2022-10-04T11:44:02.983Z,101087.06
2022-10-04T11:46:41.574Z,101093.75
2022-10-04T11:49:36.631Z,101083.81
2022-10-04T11:52:17.567Z,101092.81
2022-10-04T11:54:56.871Z,101095.41
2022-10-04T11:57:40.630Z,101085.53
2022-10-04T12:00:18.493Z,101086.06
2022-10-04T12:03:02.832Z,101075.72
2022-10-04T12:05:41.144Z,101082.19
2022-10-04T12:08:42.965Z,101086.44
2022-10-04T12:11:27.570Z,101084.63
2022-10-04T12:14:09.789Z,101079.06
2022-10-04T12:17:15.830Z,101086.84
2022-10-04T12:20:00.603Z,101091.28
2022-10-04T12:22:55.940Z,101089.50
2022-10-04T12:25:57.628Z,101085.69
2022-10-04T12:29:01.551Z,101089.50
2022-10-04T12:31:32.287Z,101086.66
2022-10-04T12:34:15.909Z,101083.88
2022-10-04T12:37:11.491Z,101084.56
2022-10-04T12:40:20.192Z,101097.09
2022-10-04T12:42:53.173Z,101101.13
2022-10-04T12:45:49.853Z,101099.47
2022-10-04T12:48:24.139Z,101096.75
2022-10-04T12:51:16.716Z,101101.06
2022-10-04T12:54:33.273Z,101113.19
2022-10-04T12:57:08.803Z,101105.41
2022-10-04T12:59:45.499Z,101116.00
2022-10-04T13:02:26.637Z,101102.56
2022-10-04T13:04:55.729Z,101101.72
2022-10-04T13:07:44.539Z,101103.13
2022-10-04T13:25:58.832Z,101112.63
2022-10-04T13:29:17.313Z,101108.63
2022-10-04T13:32:14.320Z,101104.16
2022-10-04T13:38:00.626Z,101112.66
2022-10-04T13:41:19.273Z,101114.16
2022-10-04T13:44:18.231Z,101113.66
2022-10-04T13:46:44.676Z,101112.53
2022-10-04T13:49:31.423Z,101116.81
2022-10-04T13:55:46.106Z,101121.06
2022-10-04T14:02:46.454Z,101122.59
2022-10-04T14:05:55.834Z,101117.84
2022-10-04T14:09:01.231Z,101129.50
2022-10-04T14:12:10.206Z,101126.66
2022-10-04T14:15:26.334Z,101124.38
2022-10-04T14:18:30.518Z,101133.81
2022-10-04T14:21:46.085Z,101136.81
2022-10-04T14:24:52.542Z,101133.66
2022-10-04T14:27:56.897Z,101140.38
2022-10-04T14:30:58.265Z,101139.25
2022-10-04T14:33:44.580Z,101136.13
2022-10-04T14:36:54.685Z,101134.88
2022-10-04T14:40:00.479Z,101142.59
2022-10-04T14:43:07.235Z,101137.81
2022-10-04T14:46:11.617Z,101139.75
2022-10-04T14:48:52.050Z,101146.06
2022-10-04T14:51:38.360Z,101145.97
2022-10-04T14:54:22.907Z,101138.38
2022-10-04T14:57:07.744Z,101144.25
2022-10-04T14:59:37.251Z,101147.84
2022-10-04T15:02:05.200Z,101145.94
2022-10-04T15:05:10.119Z,101153.28
2022-10-04T15:07:41.703Z,101150.84
2022-10-04T15:10:37.921Z,101151.41
2022-10-04T15:13:29.340Z,101155.09
2022-10-04T15:16:00.616Z,101158.00
2022-10-04T15:18:35.977Z,101154.53
2022-10-04T15:21:14.737Z,101147.47
2022-10-04T15:23:43.498Z,101159.13
2022-10-04T15:26:19.240Z,101160.38
2022-10-04T15:28:51.003Z,101160.19
2022-10-04T15:31:30.922Z,101153.75
2022-10-04T15:34:28.423Z,101157.38
2022-10-04T15:37:13.534Z,101155.38
2022-10-04T15:40:13.143Z,101153.22
2022-10-04T15:42:41.297Z,101154.13
2022-10-04T15:45:30.865Z,101159.69
2022-10-04T15:48:21.299Z,101156.31
2022-10-04T15:51:04.134Z,101162.25
2022-10-04T15:54:03.261Z,101164.81
2022-10-04T15:56:54.413Z,101168.78
2022-10-04T15:59:32.279Z,101165.56
2022-10-04T16:02:26.970Z,101177.88
2022-10-04T16:05:21.734Z,101173.78
2022-10-04T16:08:09.872Z,101170.94
2022-10-04T16:11:15.541Z,101181.03
2022-10-04T16:14:09.770Z,101180.09
2022-10-04T16:16:40.419Z,101179.47
2022-10-04T16:19:36.625Z,101177.25
2022-10-04T16:22:16.156Z,101183.25
2022-10-04T16:24:54.134Z,101190.63
2022-10-04T16:27:43.342Z,101193.53
2022-10-04T16:30:26.618Z,101189.41
2022-10-04T16:32:56.857Z,101189.69
2022-10-04T16:35:33.547Z,101202.19
2022-10-04T16:38:19.871Z,101205.84
2022-10-04T16:40:52.263Z,101205.81
2022-10-04T16:43:28.125Z,101208.97
2022-10-04T16:46:45.373Z,101209.97
2022-10-04T16:49:28.022Z,101210.09
2022-10-04T16:52:16.055Z,101208.28
2022-10-04T16:55:04.152Z,101215.13
2022-10-04T16:57:32.241Z,101211.13
2022-10-04T17:00:00.726Z,101205.56
2022-10-04T17:02:54.730Z,101203.19
2022-10-04T17:05:39.916Z,101205.91
2022-10-04T17:08:22.007Z,101203.38
2022-10-04T17:10:48.308Z,101209.78
2022-10-04T17:13:57.890Z,101202.38
2022-10-04T17:16:57.796Z,101195.06
2022-10-04T17:19:42.614Z,101199.25
2022-10-04T17:22:21.914Z,101196.53
2022-10-04T17:25:09.016Z,101203.81
2022-10-04T17:27:48.371Z,101199.56
2022-10-04T17:30:21.873Z,101192.94
2022-10-04T17:33:16.349Z,101192.84
2022-10-04T17:36:01.173Z,101198.22
2022-10-04T17:38:43.621Z,101193.84
2022-10-04T17:41:31.416Z,101197.56
2022-10-04T17:44:06.799Z,101186.66
2022-10-04T17:47:00.815Z,101199.50
2022-10-04T17:50:40.280Z,101205.50
2022-10-04T17:53:36.003Z,101193.53
2022-10-04T17:56:03.150Z,101196.16
2022-10-04T17:58:56.718Z,101191.25
2022-10-04T18:01:41.365Z,101189.97
2022-10-04T18:04:23.911Z,101187.41
2022-10-04T18:07:08.971Z,101191.19
2022-10-04T18:10:02.617Z,101195.78
2022-10-04T18:12:52.534Z,101189.53
2022-10-04T18:15:52.405Z,101195.16
2022-10-04T18:18:26.001Z,101193.66
2022-10-04T18:21:07.641Z,101211.50
2022-10-04T18:23:39.270Z,101204.50
2022-10-04T18:26:18.843Z,101209.13
2022-10-04T18:28:46.196Z,101208.59
2022-10-04T18:31:37.650Z,101220.63
2022-10-04T18:34:15.859Z,101214.00
2022-10-04T18:37:34.572Z,101225.59
2022-10-04T18:40:17.932Z,101221.59
2022-10-04T18:42:52.642Z,101218.56
2022-10-04T18:45:26.234Z,101223.88
2022-10-04T18:47:53.381Z,101228.97
2022-10-04T18:50:20.097Z,101222.94
2022-10-04T18:53:24.799Z,101221.47
2022-10-04T18:56:02.351Z,101211.56
2022-10-04T18:59:25.673Z,101231.16
2022-10-04T19:02:00.923Z,101237.25
2022-10-04T19:04:38.053Z,101252.09
2022-10-04T19:07:29.823Z,101248.47
2022-10-04T19:10:16.324Z,101245.09
2022-10-04T19:13:09.906Z,101236.91
2022-10-04T19:15:42.260Z,101238.75
2022-10-04T19:18:30.568Z,101234.84
2022-10-04T19:21:28.420Z,101242.25
2022-10-04T19:24:03.015Z,101235.63
2022-10-04T19:26:33.006Z,101233.25
2022-10-04T19:29:26.665Z,101225.34
2022-10-04T19:32:02.615Z,101217.63
2022-10-04T19:34:39.419Z,101240.31
2022-10-04T19:37:19.744Z,101225.66
2022-10-04T19:39:57.329Z,101219.53
2022-10-04T19:43:04.341Z,101214.75
2022-10-04T19:45:57.082Z,101209.47
2022-10-04T19:48:26.778Z,101214.16
2022-10-04T19:51:21.872Z,101221.22
2022-10-04T19:53:49.811Z,101216.28
2022-10-04T19:56:19.952Z,101213.19
2022-10-04T19:59:10.416Z,101206.69
2022-10-04T20:01:38.747Z,101198.00
2022-10-04T20:04:34.724Z,101204.19
2022-10-04T20:07:03.024Z,101193.63
2022-10-04T20:09:51.517Z,101196.16
2022-10-04T20:12:40.206Z,101202.00
2022-10-04T20:15:45.590Z,101214.78
2022-10-04T20:18:31.697Z,101222.91
2022-10-04T20:21:00.144Z,101228.94
2022-10-04T20:23:59.067Z,101227.13
2022-10-04T20:26:57.439Z,101218.84
2022-10-04T20:29:36.226Z,101216.59
2022-10-04T20:32:08.396Z,101208.59
2022-10-04T20:34:37.471Z,101216.19
2022-10-04T20:37:10.526Z,101209.38
2022-10-04T20:39:40.115Z,101213.38
2022-10-04T20:42:19.704Z,101205.91
2022-10-04T20:44:55.798Z,101217.25
2022-10-04T20:47:39.315Z,101218.53
2022-10-04T20:50:19.462Z,101226.22
2022-10-04T20:52:48.941Z,101232.59
2022-10-04T20:55:30.166Z,101233.00
2022-10-04T20:58:32.915Z,101227.59
2022-10-04T21:01:17.086Z,101229.00
2022-10-04T21:03:44.303Z,101237.47
2022-10-04T21:06:13.239Z,101238.63
2022-10-04T21:08:41.058Z,101254.47
2022-10-04T21:11:20.770Z,101243.72
2022-10-04T21:13:49.281Z,101242.22
2022-10-04T21:16:42.283Z,101241.78
2022-10-04T21:19:36.618Z,101233.38
2022-10-04T21:22:07.527Z,101236.00
2022-10-04T21:24:53.767Z,101234.31
2022-10-04T21:27:40.024Z,101228.72
2022-10-04T21:30:17.407Z,101230.50
2022-10-04T21:32:44.007Z,101224.00
2022-10-04T21:35:11.723Z,101220.25
2022-10-04T21:37:38.324Z,101228.59
2022-10-04T21:40:06.517Z,101219.75
2022-10-04T21:42:33.126Z,101228.63
2022-10-04T21:44:59.579Z,101220.91
2022-10-04T21:47:26.090Z,101230.59
2022-10-04T21:49:53.806Z,101239.69
2022-10-04T21:52:20.362Z,101235.69
2022-10-04T21:54:46.945Z,101232.25
2022-10-04T21:57:13.691Z,101235.53
2022-10-04T21:59:40.119Z,101234.03
2022-10-04T22:02:07.779Z,101240.63
2022-10-04T22:04:34.341Z,101240.00
2022-10-04T22:07:00.803Z,101237.00
2022-10-04T22:09:27.319Z,101240.34
2022-10-04T22:11:53.768Z,101230.78
2022-10-04T22:14:20.187Z,101224.22
2022-10-04T22:16:46.905Z,101218.72
2022-10-04T22:19:13.503Z,101208.34
2022-10-04T22:21:39.960Z,101194.47
2022-10-04T22:24:15.184Z,101193.91
2022-10-04T22:26:41.627Z,101199.94
2022-10-04T22:29:12.687Z,101204.88
2022-10-04T22:31:43.972Z,101207.84
2022-10-04T22:34:16.744Z,101209.06
2022-10-04T22:36:44.017Z,101182.31
2022-10-04T22:39:16.157Z,101194.94
2022-10-04T22:41:48.150Z,101202.53
2022-10-04T22:44:25.792Z,101199.56
2022-10-04T22:46:54.113Z,101204.13
2022-10-04T22:49:23.975Z,101217.13
2022-10-04T22:51:51.787Z,101226.81
2022-10-04T22:54:20.509Z,101206.31
2022-10-04T22:56:47.812Z,101206.88
2022-10-04T22:59:16.875Z,101210.53
2022-10-04T23:01:43.866Z,101203.59
2022-10-04T23:04:19.498Z,101190.84
2022-10-04T23:06:46.296Z,101198.97
2022-10-04T23:09:13.018Z,101207.34
2022-10-04T23:11:39.449Z,101213.38
2022-10-04T23:14:05.986Z,101212.41
2022-10-04T23:16:32.490Z,101208.19
2022-10-04T23:19:14.734Z,101191.31
2022-10-04T23:21:44.970Z,101197.75
2022-10-04T23:24:22.791Z,101196.41
2022-10-04T23:26:53.292Z,101203.41
2022-10-04T23:29:27.854Z,101191.13
2022-10-04T23:31:55.672Z,101179.88
2022-10-04T23:34:43.016Z,101186.78
2022-10-04T23:37:27.980Z,101184.69
2022-10-04T23:39:54.454Z,101192.16
2022-10-04T23:42:28.857Z,101194.88
2022-10-04T23:44:57.119Z,101199.97
2022-10-04T23:47:27.465Z,101196.53
2022-10-04T23:49:53.885Z,101189.66
2022-10-04T23:52:24.654Z,101190.63
2022-10-04T23:54:52.304Z,101192.75
2022-10-04T23:57:25.893Z,101188.94
2022-10-04T23:59:52.339Z,101181.66
